createdAt,value
2019-05-15T00:00:12.750Z,3.30
2019-05-15T00:02:41.214Z,2.87
2019-05-15T00:05:09.771Z,3.98
2019-05-15T00:07:39.121Z,3.37
2019-05-15T00:10:09.064Z,3.37
2019-05-15T00:12:39.449Z,4.28
2019-05-15T00:15:09.316Z,4.40
2019-05-15T00:17:39.478Z,3.40
2019-05-15T00:20:09.943Z,4.03
2019-05-15T00:22:39.110Z,3.08
2019-05-15T00:25:09.406Z,4.08
2019-05-15T00:27:38.845Z,3.12
2019-05-15T00:30:09.021Z,3.12
2019-05-15T00:32:39.430Z,4.95
2019-05-15T00:35:09.387Z,3.65
2019-05-15T00:37:38.815Z,2.90
2019-05-15T00:40:08.804Z,3.72
2019-05-15T00:42:38.321Z,4.00
2019-05-15T00:45:09.525Z,4.23
2019-05-15T00:47:39.752Z,4.85
2019-05-15T00:50:09.748Z,5.12
2019-05-15T00:52:39.296Z,2.90
2019-05-15T00:55:08.990Z,3.80
2019-05-15T00:57:39.299Z,4.90
2019-05-15T01:00:08.797Z,5.33
2019-05-15T01:02:38.779Z,3.17
2019-05-15T01:05:08.425Z,2.98
2019-05-15T01:07:38.918Z,3.17
2019-05-15T01:10:09.875Z,3.90
2019-05-15T01:12:38.658Z,4.15
2019-05-15T01:15:09.267Z,3.17
2019-05-15T01:17:39.004Z,4.00
2019-05-15T01:20:08.650Z,2.65
2019-05-15T01:22:39.312Z,4.67
2019-05-15T01:25:08.816Z,2.62
2019-05-15T01:27:38.711Z,3.52
2019-05-15T01:30:08.919Z,3.87
2019-05-15T01:32:39.470Z,3.50
2019-05-15T01:35:09.535Z,3.62
2019-05-15T01:37:39.009Z,3.65
2019-05-15T01:40:09.351Z,3.22
2019-05-15T01:42:38.893Z,3.52
2019-05-15T01:45:08.996Z,4.20
2019-05-15T01:47:38.865Z,2.63
2019-05-15T01:50:09.345Z,2.83
2019-05-15T01:52:39.211Z,4.50
2019-05-15T01:55:09.132Z,3.10
2019-05-15T01:57:38.418Z,4.08
2019-05-15T02:00:09.544Z,3.62
2019-05-15T02:02:39.000Z,3.73
2019-05-15T02:05:08.878Z,4.42
2019-05-15T02:07:39.118Z,2.72
2019-05-15T02:10:09.114Z,3.90
2019-05-15T02:12:38.936Z,3.12
2019-05-15T02:15:08.766Z,3.10
2019-05-15T02:17:39.346Z,3.52
2019-05-15T02:20:08.335Z,3.08
2019-05-15T02:22:42.084Z,4.37
2019-05-15T02:25:08.572Z,3.57
2019-05-15T02:27:39.381Z,3.10
2019-05-15T02:30:21.453Z,3.70
2019-05-15T02:32:39.876Z,2.85
2019-05-15T02:35:09.943Z,4.00
2019-05-15T02:37:40.751Z,6.03
2019-05-15T02:40:10.389Z,4.73
2019-05-15T02:42:40.113Z,3.52
2019-05-15T02:45:10.267Z,3.67
2019-05-15T02:47:39.754Z,4.80
2019-05-15T02:50:10.559Z,4.70
2019-05-15T02:52:44.562Z,4.67
2019-05-15T02:55:09.743Z,3.90
2019-05-15T02:57:39.478Z,3.70
2019-05-15T03:00:10.823Z,2.92
2019-05-15T03:02:41.143Z,4.28
2019-05-15T03:05:09.653Z,5.37
2019-05-15T03:07:40.456Z,4.30
2019-05-15T03:10:09.723Z,4.28
2019-05-15T03:12:40.596Z,4.67
2019-05-15T03:15:09.697Z,4.37
2019-05-15T03:17:40.537Z,4.28
2019-05-15T03:20:10.379Z,4.53
2019-05-15T03:22:40.268Z,5.00
2019-05-15T03:25:10.696Z,4.62
2019-05-15T03:27:40.112Z,3.42
2019-05-15T03:30:13.109Z,3.67
2019-05-15T03:35:14.622Z,4.87
2019-05-15T03:37:39.952Z,3.35
2019-05-15T03:40:10.385Z,3.83
2019-05-15T03:42:39.726Z,4.63
2019-05-15T03:45:10.117Z,3.98
2019-05-15T03:47:40.110Z,4.23
2019-05-15T03:50:09.702Z,4.55
2019-05-15T03:52:39.428Z,5.25
2019-05-15T03:55:10.979Z,6.70
2019-05-15T03:57:40.034Z,3.85
2019-05-15T04:00:10.320Z,7.28
2019-05-15T04:02:39.736Z,5.03
2019-05-15T04:05:11.821Z,3.33
2019-05-15T04:07:39.738Z,6.43
2019-05-15T04:10:10.126Z,3.90
2019-05-15T04:12:40.351Z,4.87
2019-05-15T04:15:10.478Z,6.40
2019-05-15T04:17:40.535Z,4.97
2019-05-15T04:20:10.497Z,6.17
2019-05-15T04:22:40.351Z,4.83
2019-05-15T04:25:09.909Z,7.42
2019-05-15T04:27:40.618Z,4.70
2019-05-15T04:30:10.926Z,5.44
2019-05-15T04:32:40.243Z,6.22
2019-05-15T04:35:09.607Z,5.75
2019-05-15T04:37:40.686Z,4.35
2019-05-15T04:40:09.505Z,8.48
2019-05-15T04:42:39.755Z,4.33
2019-05-15T04:45:10.659Z,4.50
2019-05-15T04:47:39.849Z,3.83
2019-05-15T04:50:09.230Z,5.95
2019-05-15T04:52:39.394Z,4.10
2019-05-15T04:55:10.277Z,5.28
2019-05-15T04:57:40.264Z,5.10
2019-05-15T05:00:09.860Z,5.05
2019-05-15T05:02:40.097Z,3.52
2019-05-15T05:05:10.705Z,4.78
2019-05-15T05:07:39.666Z,6.00
2019-05-15T05:10:09.835Z,4.75
2019-05-15T05:12:41.910Z,4.07
2019-05-15T05:15:09.262Z,3.43
2019-05-15T05:17:39.375Z,3.85
2019-05-15T05:20:08.428Z,3.85
2019-05-15T05:22:39.388Z,5.50
2019-05-15T05:25:08.194Z,4.80
2019-05-15T05:27:38.367Z,4.75
2019-05-15T05:30:08.827Z,4.17
2019-05-15T05:32:38.947Z,4.60
2019-05-15T05:35:08.617Z,5.22
2019-05-15T05:37:38.866Z,4.50
2019-05-15T05:40:08.029Z,4.40
2019-05-15T05:42:39.035Z,4.45
2019-05-15T05:45:09.288Z,5.63
2019-05-15T05:47:38.306Z,4.30
2019-05-15T05:50:08.660Z,7.42
2019-05-15T05:52:39.016Z,5.80
2019-05-15T05:55:08.755Z,6.00
2019-05-15T05:57:38.346Z,6.03
2019-05-15T06:00:09.334Z,4.75
2019-05-15T06:02:46.926Z,7.47
2019-05-15T06:05:08.387Z,5.53
2019-05-15T06:07:38.744Z,8.40
2019-05-15T06:10:09.023Z,5.42
2019-05-15T06:12:38.994Z,6.23
2019-05-15T06:15:08.907Z,7.60
2019-05-15T06:17:39.193Z,6.83
2019-05-15T06:20:08.190Z,4.00
2019-05-15T06:22:38.687Z,5.22
2019-05-15T06:25:10.733Z,5.95
2019-05-15T06:27:39.125Z,4.13
2019-05-15T06:30:08.804Z,3.53
2019-05-15T06:32:39.946Z,3.17
2019-05-15T06:35:09.162Z,3.52
2019-05-15T06:37:39.584Z,3.17
2019-05-15T06:40:08.600Z,5.83
2019-05-15T06:42:39.518Z,4.90
2019-05-15T06:45:08.183Z,4.43
2019-05-15T06:47:39.247Z,2.35
2019-05-15T06:50:10.378Z,3.40
2019-05-15T06:52:38.794Z,4.25
2019-05-15T06:55:09.236Z,4.50
2019-05-15T06:57:39.717Z,2.60
2019-05-15T07:00:13.902Z,1.52
2019-05-15T07:02:42.306Z,2.35
2019-05-15T07:05:10.954Z,1.45
2019-05-15T07:07:39.374Z,3.77
2019-05-15T07:10:09.144Z,1.15
2019-05-15T07:12:39.181Z,1.55
2019-05-15T07:15:09.181Z,2.17
2019-05-15T07:17:39.276Z,2.12
2019-05-15T07:20:09.038Z,1.80
2019-05-15T07:22:39.261Z,1.40
2019-05-15T07:25:09.833Z,1.32
2019-05-15T07:27:39.039Z,1.10
2019-05-15T07:30:11.645Z,2.70
2019-05-15T07:32:39.760Z,1.15
2019-05-15T07:35:10.146Z,1.40
2019-05-15T07:37:39.007Z,2.12
2019-05-15T07:40:10.743Z,1.95
2019-05-15T07:42:39.144Z,2.90
2019-05-15T07:45:09.567Z,1.20
2019-05-15T07:47:38.669Z,1.23
2019-05-15T07:50:09.320Z,1.15
2019-05-15T07:52:39.812Z,1.57
2019-05-15T07:55:09.199Z,1.60
2019-05-15T07:57:39.339Z,2.05
2019-05-15T08:00:18.780Z,2.23
2019-05-15T08:02:48.200Z,1.02
2019-05-15T08:05:18.754Z,1.17
2019-05-15T08:07:49.038Z,1.22
2019-05-15T08:10:18.511Z,1.87
2019-05-15T08:12:49.293Z,3.08
2019-05-15T08:15:18.389Z,1.57
2019-05-15T08:18:03.347Z,1.70
2019-05-15T08:20:19.119Z,1.13
2019-05-15T08:22:48.951Z,1.90
2019-05-15T08:25:31.125Z,1.00
2019-05-15T08:27:48.882Z,2.40
2019-05-15T08:30:18.415Z,1.67
2019-05-15T08:32:51.251Z,2.17
2019-05-15T08:35:19.106Z,1.37
2019-05-15T08:37:49.099Z,1.63
2019-05-15T08:40:18.230Z,2.35
2019-05-15T08:42:54.544Z,1.70
2019-05-15T08:45:18.904Z,1.37
2019-05-15T08:47:49.267Z,1.37
2019-05-15T08:50:19.254Z,0.80
2019-05-15T08:52:48.712Z,2.23
2019-05-15T08:55:20.114Z,1.30
2019-05-15T08:57:55.515Z,0.93
2019-05-15T09:00:18.688Z,0.80
2019-05-15T09:02:48.807Z,1.30
2019-05-15T09:05:19.502Z,1.62
2019-05-15T09:07:48.675Z,2.35
2019-05-15T09:10:18.355Z,3.52
2019-05-15T09:12:47.059Z,1.07
2019-05-15T09:15:24.588Z,0.82
2019-05-15T09:18:08.028Z,1.92
2019-05-15T09:20:23.206Z,1.30
2019-05-15T09:22:51.598Z,3.30
2019-05-15T09:25:20.357Z,1.55
2019-05-15T09:27:48.970Z,1.02
2019-05-15T09:30:19.180Z,1.27
2019-05-15T09:32:48.452Z,1.98
2019-05-15T09:35:20.205Z,1.05
2019-05-15T09:37:49.178Z,3.77
2019-05-15T09:40:18.733Z,1.20
2019-05-15T09:42:48.689Z,1.32
2019-05-15T09:45:18.047Z,2.10
2019-05-15T09:47:48.428Z,2.02
2019-05-15T09:50:19.389Z,3.37
2019-05-15T09:52:50.066Z,1.80
2019-05-15T09:55:19.226Z,1.53
2019-05-15T09:57:49.031Z,1.12
2019-05-15T10:00:19.471Z,2.33
2019-05-15T10:02:48.601Z,1.20
2019-05-15T10:05:18.696Z,0.60
2019-05-15T10:07:47.518Z,1.07
2019-05-15T10:10:19.198Z,1.02
2019-05-15T10:12:49.443Z,2.42
2019-05-15T10:15:18.575Z,1.87
2019-05-15T10:17:50.664Z,0.80
2019-05-15T10:20:18.845Z,2.60
2019-05-15T10:22:48.439Z,2.08
2019-05-15T10:25:19.017Z,0.80
2019-05-15T10:27:48.824Z,1.57
2019-05-15T10:30:18.899Z,0.85
2019-05-15T10:32:48.796Z,3.15
2019-05-15T10:35:25.745Z,1.72
2019-05-15T10:37:48.768Z,1.13
2019-05-15T10:40:20.421Z,1.02
2019-05-15T10:42:49.653Z,1.52
2019-05-15T10:45:19.238Z,1.10
2019-05-15T10:47:49.568Z,1.12
2019-05-15T10:50:19.094Z,1.90
2019-05-15T10:52:48.915Z,1.77
2019-05-15T10:55:18.905Z,1.75
2019-05-15T10:57:47.643Z,1.05
2019-05-15T11:00:19.457Z,1.07
2019-05-15T11:02:48.978Z,1.32
2019-05-15T11:05:19.089Z,2.47
2019-05-15T11:07:48.287Z,1.20
2019-05-15T11:10:18.579Z,1.42
2019-05-15T11:12:47.295Z,1.20
2019-05-15T11:15:18.445Z,1.75
2019-05-15T11:17:48.954Z,1.10
2019-05-15T11:20:18.839Z,2.20
2019-05-15T11:22:49.980Z,2.73
2019-05-15T11:25:17.313Z,1.10
2019-05-15T11:27:48.237Z,1.10
2019-05-15T11:30:18.898Z,1.47
2019-05-15T11:32:48.575Z,1.02
2019-05-15T11:35:18.547Z,1.02
2019-05-15T11:37:49.278Z,2.70
2019-05-15T11:40:18.867Z,2.10
2019-05-15T11:42:48.740Z,1.70
2019-05-15T11:45:18.653Z,1.32
2019-05-15T11:47:48.367Z,4.83
2019-05-15T11:50:20.435Z,1.65
2019-05-15T11:52:49.426Z,1.60
2019-05-15T11:55:18.183Z,2.25
2019-05-15T11:57:48.617Z,2.50
2019-05-15T12:00:26.423Z,2.30
2019-05-15T12:02:48.538Z,1.90
2019-05-15T12:05:18.231Z,1.90
2019-05-15T12:07:47.736Z,0.98
2019-05-15T12:10:18.568Z,1.87
2019-05-15T12:12:49.739Z,1.92
2019-05-15T12:15:19.102Z,1.10
2019-05-15T12:17:48.480Z,1.10
2019-05-15T12:20:19.315Z,1.92
2019-05-15T12:22:48.545Z,4.77
2019-05-15T12:25:17.458Z,1.10
2019-05-15T12:27:49.143Z,1.00
2019-05-15T12:30:19.952Z,1.03
2019-05-15T12:32:49.416Z,1.50
2019-05-15T12:35:20.474Z,1.85
2019-05-15T12:37:48.235Z,1.07
2019-05-15T13:00:20.784Z,1.75
2019-05-15T13:02:49.658Z,2.47
2019-05-15T13:05:19.236Z,2.10
2019-05-15T13:07:48.382Z,1.77
2019-05-15T13:10:18.553Z,1.10
2019-05-15T13:12:59.357Z,1.50
2019-05-15T13:15:19.094Z,1.10
2019-05-15T13:17:52.649Z,2.37
2019-05-15T13:20:18.636Z,1.10
2019-05-15T13:25:18.880Z,0.90
2019-05-15T13:27:48.794Z,3.20
2019-05-15T13:30:18.365Z,0.80
2019-05-15T13:32:49.631Z,1.10
2019-05-15T13:35:18.490Z,1.00
2019-05-15T13:37:49.199Z,1.22
2019-05-15T13:40:18.679Z,1.47
2019-05-15T13:42:48.570Z,1.27
2019-05-15T13:45:18.328Z,1.15
2019-05-15T13:47:47.144Z,1.45
2019-05-15T13:50:15.790Z,2.12
2019-05-15T13:52:44.194Z,1.60
2019-05-15T13:55:12.671Z,2.97
2019-05-15T13:57:41.077Z,0.90
2019-05-15T14:00:10.131Z,1.52
2019-05-15T14:02:38.974Z,1.45
2019-05-15T14:05:09.421Z,2.10
2019-05-15T14:07:48.932Z,1.53
2019-05-15T14:10:10.397Z,2.25
2019-05-15T14:12:38.869Z,3.47
2019-05-15T14:15:09.439Z,1.27
2019-05-15T14:17:38.215Z,1.10
2019-05-15T14:20:08.992Z,2.55
2019-05-15T14:22:38.913Z,1.87
2019-05-15T14:25:08.894Z,2.07
2019-05-15T14:27:39.863Z,1.17
2019-05-15T14:30:10.237Z,1.25
2019-05-15T14:32:39.536Z,1.15
2019-05-15T14:35:09.575Z,2.25
2019-05-15T14:37:38.063Z,2.33
2019-05-15T14:40:08.938Z,1.47
2019-05-15T14:42:39.577Z,1.25
2019-05-15T14:45:09.152Z,1.53
2019-05-15T14:47:39.095Z,1.12
2019-05-15T14:50:09.964Z,1.00
2019-05-15T14:52:38.663Z,3.55
2019-05-15T14:55:07.730Z,2.05
2019-05-15T14:57:39.079Z,4.55
2019-05-15T15:00:08.792Z,1.90
2019-05-15T15:05:08.862Z,0.93
2019-05-15T15:07:38.237Z,4.93
2019-05-15T15:10:08.119Z,1.27
2019-05-15T15:12:39.090Z,2.57
2019-05-15T15:15:10.006Z,1.60
2019-05-15T15:17:38.546Z,3.33
2019-05-15T15:20:08.172Z,2.37
2019-05-15T15:22:39.138Z,1.85
2019-05-15T15:25:09.525Z,2.13
2019-05-15T15:27:38.966Z,2.75
2019-05-15T15:30:09.313Z,4.22
2019-05-15T15:32:38.472Z,8.60
2019-05-15T15:35:09.031Z,2.40
2019-05-15T15:37:38.432Z,1.42
2019-05-15T15:40:08.409Z,1.40
2019-05-15T15:42:39.305Z,1.00
2019-05-15T15:45:09.096Z,1.95
2019-05-15T15:47:39.045Z,2.25
2019-05-15T15:50:09.449Z,2.30
2019-05-15T15:52:38.559Z,1.10
2019-05-15T15:55:08.844Z,1.75
2019-05-15T15:57:39.853Z,4.03
2019-05-15T16:00:10.664Z,4.30
2019-05-15T16:02:41.080Z,5.47
2019-05-15T16:05:09.894Z,1.20
2019-05-15T16:07:38.701Z,1.20
2019-05-15T16:10:08.537Z,1.17
2019-05-15T16:12:38.837Z,3.03
2019-05-15T16:15:09.279Z,3.30
2019-05-15T16:17:38.594Z,2.00
2019-05-15T16:20:09.093Z,4.00
2019-05-15T16:22:38.455Z,2.04
2019-05-15T16:25:10.044Z,1.47
2019-05-15T16:27:38.901Z,2.72
2019-05-15T16:30:08.609Z,3.95
2019-05-15T16:32:38.892Z,3.15
2019-05-15T16:35:08.647Z,3.20
2019-05-15T16:37:38.860Z,5.85
2019-05-15T16:40:08.672Z,5.47
2019-05-15T16:42:38.612Z,3.83
2019-05-15T16:45:09.785Z,2.33
2019-05-15T16:47:38.897Z,2.05
2019-05-15T16:50:09.187Z,1.93
2019-05-15T16:52:38.934Z,2.35
2019-05-15T16:55:09.540Z,2.00
2019-05-15T16:57:38.808Z,3.37
2019-05-15T17:00:09.526Z,1.42
2019-05-15T17:02:39.479Z,4.80
2019-05-15T17:05:08.879Z,1.53
2019-05-15T17:07:38.728Z,1.75
2019-05-15T17:10:08.517Z,2.83
2019-05-15T17:12:38.721Z,1.77
2019-05-15T17:15:09.082Z,3.20
2019-05-15T17:17:38.795Z,3.47
2019-05-15T17:20:09.820Z,2.37
2019-05-15T17:22:38.622Z,1.45
2019-05-15T17:25:09.317Z,1.12
2019-05-15T17:27:38.513Z,2.02
2019-05-15T17:30:09.279Z,3.17
2019-05-15T17:32:38.861Z,1.75
2019-05-15T17:35:09.799Z,3.03
2019-05-15T17:37:38.689Z,2.17
2019-05-15T17:40:07.923Z,1.15
2019-05-15T17:42:38.885Z,3.08
2019-05-15T17:45:09.104Z,2.70
2019-05-15T17:47:38.713Z,3.35
2019-05-15T17:50:08.582Z,1.57
2019-05-15T17:52:38.661Z,2.02
2019-05-15T17:55:07.579Z,1.47
2019-05-15T17:57:39.017Z,3.62
2019-05-15T18:00:12.234Z,2.27
2019-05-15T18:02:39.297Z,1.25
2019-05-15T18:05:08.731Z,3.55
2019-05-15T18:07:39.037Z,2.00
2019-05-15T18:10:08.416Z,1.90
2019-05-15T18:12:38.874Z,1.20
2019-05-15T18:15:09.028Z,2.13
2019-05-15T18:17:39.142Z,1.30
2019-05-15T18:20:09.877Z,1.82
2019-05-15T18:22:38.830Z,2.70
2019-05-15T18:25:09.148Z,2.98
2019-05-15T18:27:38.789Z,1.40
2019-05-15T18:30:09.296Z,4.07
2019-05-15T18:32:39.149Z,1.83
2019-05-15T18:35:08.732Z,2.17
2019-05-15T18:37:39.355Z,2.22
2019-05-15T18:40:09.774Z,1.77
2019-05-15T18:42:39.199Z,1.10
2019-05-15T18:45:09.222Z,1.37
2019-05-15T18:47:39.267Z,2.85
2019-05-15T18:50:12.924Z,1.87
2019-05-15T18:55:08.971Z,3.17
2019-05-15T18:57:40.062Z,1.55
2019-05-15T19:00:10.380Z,2.85
2019-05-15T19:02:39.494Z,1.60
2019-05-15T19:05:09.001Z,2.52
2019-05-15T19:07:38.334Z,2.45
2019-05-15T19:10:10.482Z,1.47
2019-05-15T19:12:39.269Z,1.92
2019-05-15T19:15:09.529Z,2.37
2019-05-15T19:17:38.836Z,2.27
2019-05-15T19:20:09.069Z,2.33
2019-05-15T19:22:40.641Z,2.02
2019-05-15T19:25:09.100Z,2.27
2019-05-15T19:27:39.548Z,1.12
2019-05-15T19:30:09.491Z,2.63
2019-05-15T19:32:40.083Z,1.60
2019-05-15T19:35:09.061Z,2.07
2019-05-15T19:37:38.321Z,1.90
2019-05-15T19:40:07.748Z,2.40
2019-05-15T19:42:38.436Z,1.87
2019-05-15T19:45:08.695Z,1.57
2019-05-15T19:50:08.470Z,2.20
2019-05-15T19:52:37.446Z,2.98
2019-05-15T19:55:08.617Z,1.30
2019-05-15T19:57:38.707Z,2.27
2019-05-15T20:00:08.584Z,3.10
2019-05-15T20:02:38.176Z,2.98
2019-05-15T20:05:09.098Z,2.27
2019-05-15T20:10:09.714Z,3.00
2019-05-15T20:12:38.830Z,2.20
2019-05-15T20:15:09.362Z,2.90
2019-05-15T20:17:38.630Z,1.95
2019-05-15T20:20:11.027Z,2.65
2019-05-15T20:22:40.178Z,2.55
2019-05-15T20:25:09.679Z,4.60
2019-05-15T20:27:39.068Z,3.77
2019-05-15T20:30:08.760Z,3.05
2019-05-15T20:32:38.634Z,3.02
2019-05-15T20:35:08.671Z,3.35
2019-05-15T20:37:39.157Z,3.87
2019-05-15T20:40:09.112Z,3.70
2019-05-15T20:42:38.588Z,2.53
2019-05-15T20:45:12.027Z,2.67
2019-05-15T20:50:08.858Z,3.30
2019-05-15T20:52:39.473Z,2.00
2019-05-15T20:55:13.039Z,3.30
2019-05-15T20:57:41.989Z,2.40
2019-05-15T21:00:13.724Z,2.92
2019-05-15T21:02:42.158Z,4.55
2019-05-15T21:05:10.625Z,3.08
2019-05-15T21:07:42.921Z,3.03
2019-05-15T21:10:09.854Z,3.27
2019-05-15T21:12:41.229Z,3.67
2019-05-15T21:15:10.809Z,3.18
2019-05-15T21:17:40.821Z,3.42
2019-05-15T21:20:09.917Z,3.22
2019-05-15T21:22:40.302Z,3.80
2019-05-15T21:25:10.878Z,4.55
2019-05-15T21:27:42.061Z,3.57
2019-05-15T21:30:10.999Z,4.83
2019-05-15T21:32:39.428Z,5.03
2019-05-15T21:35:09.070Z,4.87
2019-05-15T21:37:39.023Z,3.97
2019-05-15T21:40:08.631Z,4.85
2019-05-15T21:42:38.912Z,3.17
2019-05-15T21:45:14.144Z,4.45
2019-05-15T21:47:39.286Z,3.15
2019-05-15T21:50:08.746Z,3.15
2019-05-15T21:52:38.993Z,2.77
2019-05-15T21:55:09.521Z,2.87
2019-05-15T21:57:40.405Z,1.57
2019-05-15T22:00:11.694Z,5.22
2019-05-15T22:02:40.454Z,2.25
2019-05-15T22:05:09.118Z,2.87
2019-05-15T22:07:38.901Z,2.92
2019-05-15T22:10:10.821Z,2.47
2019-05-15T22:12:38.976Z,2.47
2019-05-15T22:15:08.960Z,2.92
2019-05-15T22:17:38.702Z,2.83
2019-05-15T22:20:08.705Z,2.12
2019-05-15T22:22:37.421Z,3.30
2019-05-15T22:25:10.889Z,2.20
2019-05-15T22:27:38.315Z,3.63
2019-05-15T22:30:08.362Z,5.67
2019-05-15T22:32:41.246Z,3.00
2019-05-15T22:35:13.306Z,2.50
2019-05-15T22:37:42.286Z,2.35
2019-05-15T22:40:11.040Z,2.80
2019-05-15T22:42:39.786Z,3.22
2019-05-15T22:45:11.633Z,2.02
2019-05-15T22:47:39.195Z,3.37
2019-05-15T22:50:08.541Z,2.58
2019-05-15T22:52:38.925Z,2.47
2019-05-15T22:55:07.921Z,3.05
2019-05-15T22:57:38.667Z,4.85
2019-05-15T23:00:11.441Z,4.28
2019-05-15T23:02:39.868Z,2.06
2019-05-15T23:05:23.099Z,2.22
2019-05-15T23:07:39.180Z,3.80
2019-05-15T23:10:08.937Z,2.22
2019-05-15T23:12:38.187Z,3.10
2019-05-15T23:15:08.747Z,3.58
2019-05-15T23:17:38.357Z,2.40
2019-05-15T23:20:08.673Z,2.00
2019-05-15T23:22:38.584Z,1.67
2019-05-15T23:25:07.793Z,3.08
2019-05-15T23:27:38.178Z,2.72
2019-05-15T23:30:08.984Z,1.95
2019-05-15T23:32:39.204Z,2.47
2019-05-15T23:35:07.593Z,2.35
2019-05-15T23:37:36.027Z,3.17
2019-05-15T23:40:08.691Z,3.25
2019-05-15T23:42:38.971Z,4.85
2019-05-15T23:45:07.474Z,2.50
2019-05-15T23:47:38.078Z,1.90
2019-05-15T23:50:06.213Z,3.40
2019-05-15T23:52:34.706Z,2.67
2019-05-15T23:55:04.234Z,3.52
2019-05-15T23:57:32.647Z,2.07
